Airfield :







YOU CAN JOIN US ON...

 
LOGIN :

Register | Disclaimer

   EN    FR    IT 

 









Legend :    VFR   Marginal VFR   IFR   Intensive IFR   Very Intensive IFR
Visi :
Ceiling :
>= 8 km
>= 3000ft
5 to 8 km
1000 to 3000 ft
1500m to 5 km
500 to 1000 ft
800 to 1500m
200 to 500 ft
< 800m
< 200 ft
Symbols :   Thunderstorms  Fog  Heavy snow  Heavy precipitations  Wind > 20 kt






- Airport Elevation : 555 ft


KORE - Orange Municipal

CURRENT METAR :
  • 261952Z AUTO 30011G20KT 10SM FEW032 05/M03 A2967 RMK AO2 SLP052 T00501033

EXPIRED METARs :
  • 261852Z AUTO 28011G19KT 10SM FEW021 FEW043 05/M02 A2967 RMK AO2 PK WND 29026/1805 RAB06E23 SLP050 P0000 T00501017
  • 261752Z AUTO 26011G17KT 10SM BKN033 BKN043 OVC060 06/M01 A2966 RMK AO2 SLP049 T00611011 10067 20011 58016

TAF N/A



MET'MAP, your aeronautical weather chart ! - Copyright ORBIFLY December 2007 - Disclaimer

ORBIFLY MET'MAP TEAM :

Programming & Development : Alexandra Zaïnal
Concept & original design : Baudouin d'Aumeries
Assistance for programming : Marc-Olivier Méhu
Technical & hardware support : Manuel Goepfert

Contact : metmap@orbifly.com




SOURCES & CREDITS :

   NOAA